Coelho da Rocha, Brazil
Current Conditions -  °F | °C
As of 11:00 AM on Friday 24 Oct 2014 (Local Time) from SBAF Reporting Station
Clear Clear  
Wind Chill: 82°   Ceiling: Unl
Heat Index: 83°   Visibility: 6mi
Dew Point: 63°   Wind: 3mph
Humidity: 51%   Direction: 160°SSE
Pressure: 30"   Gusts: NA
Location:  22.78°S, 43.38°W
Report Text: SBAF 241300Z 16003KT CAVOK 28/17 Q1016
Loading
Personal Weather Stations






























Interactive Weather Map
Tropical Storm Tracking
New forecast layout! Learn more

10-Day Weather Forecast

Advertisements
Track Severe Weather on mobile